Cheyenne Regional Jerry Olson Field Cheyenne US
ICAO: KCYS
IATA: CYS
Category: Medium
Scheduled Services: Yes

Elevation: 6159 ft
TransAlt. 18000 ft.

Airport Communications:
APP/DEP:124.55
ATIS:134.425
CTAF:118.7
GND:121.9
ARNG OPS:126.2
ANG OPS/COMD POST:22.552
CASPER RDO:122.3
TWR:118.7
UNICOM:122.95

KCYS Zoom In..

Runways:

(A) RW 09 length 9270 ft width 150 ft
---- / hdg 85

(B) RW 13 length 6690 ft width 150 ft
---- / hdg 125

(C) RW 27 length 9270 ft width 150 ft
ILS 110.10 / hdg 265

(D) RW 31 length 6690 ft width 150 ft
---- / hdg 305

Location; KCYS
Day. 25 / Time. 09.53 Zulu
* Altimeter: 30.34
* Temperature: -04° c. -24.8°f.
* Wind from: 290° Speed 05 kn.
Dewpoint: -05° c.
Visibility: 10 Statute Miles.
Clouds: Clear (automated report).

KCYS 250953Z AUTO 29005KT 10SM CLR M04/M05 A3034 RMK AO2 SLP303 T10391050


Wind From 290°
Speed 05 kn.

  YouTube Music Video
 
jpsmedia.com for Web Design  worldairports.se 2018   terms of use